Time;durP1;ratioP1;P1;durP2;ratioP2;P2;SDS_P1;SDS_P2;PMS_P1;PMS_P2;Temp;Humidity;BMP_temperature;BMP_pressure;BME280_temperature;BME280_humidity;BME280_pressure;Samples;Min_cycle;Max_cycle;Signal;HPM_P1;HPM_P2
2021/12/07 00:01:28;;;;;;;5.47;2.30;;;23.80;99.90;;;;;;5071190;28;20217;-69
2021/12/07 00:03:55;;;;;;;8.73;2.40;;;24.00;99.90;;;;;;5070973;28;20182;-69
2021/12/07 00:06:23;;;;;;;11.67;2.60;;;24.30;99.90;;;;;;5070857;28;20701;-68
2021/12/07 00:08:54;;;;;;;12.03;2.17;;;24.80;99.90;;;;;;5071102;28;20309;-68
2021/12/07 00:11:24;;;;;;;9.10;2.47;;;25.00;99.90;;;;;;5070785;28;20241;-67
2021/12/07 00:13:52;;;;;;;5.03;1.70;;;25.40;99.90;;;;;;5070421;28;20187;-66
2021/12/07 00:16:19;;;;;;;7.60;2.13;;;25.80;99.90;;;;;;5070366;28;20216;-68
2021/12/07 00:18:48;;;;;;;6.03;2.03;;;26.30;99.90;;;;;;5071113;28;20229;-68
2021/12/07 00:21:19;;;;;;;7.80;2.40;;;26.40;99.90;;;;;;5071082;28;20180;-67
2021/12/07 00:23:48;;;;;;;10.43;2.00;;;26.30;99.90;;;;;;5070430;28;20330;-67
2021/12/07 00:26:17;;;;;;;8.40;2.20;;;25.70;99.90;;;;;;5070155;28;20542;-68
2021/12/07 00:28:44;;;;;;;7.03;2.90;;;24.60;99.90;;;;;;5069598;28;20215;-68
2021/12/07 00:31:21;;;;;;;8.77;2.90;;;24.20;99.90;;;;;;5070550;28;20172;-68
2021/12/07 00:34:17;;;;;;;5.33;2.23;;;24.00;99.90;;;;;;5070751;28;20686;-68
2021/12/07 00:36:39;;;;;;;7.30;2.87;;;24.30;99.90;;;;;;5070656;28;20190;-67
2021/12/07 00:39:08;;;;;;;6.77;2.40;;;25.00;99.90;;;;;;5069596;28;20187;-68
2021/12/07 00:41:35;;;;;;;11.97;2.70;;;24.50;99.90;;;;;;5070826;28;20176;-67
2021/12/07 00:44:04;;;;;;;9.60;2.40;;;25.10;99.90;;;;;;5070137;28;20222;-68
2021/12/07 00:46:33;;;;;;;4.93;2.17;;;25.40;99.90;;;;;;5070950;28;20190;-67
2021/12/07 00:49:01;;;;;;;4.73;2.20;;;26.10;99.90;;;;;;5071086;28;20298;-68
2021/12/07 00:51:29;;;;;;;8.97;2.37;;;26.40;99.90;;;;;;5071201;28;20184;-68
2021/12/07 00:53:57;;;;;;;10.50;2.93;;;26.30;99.90;;;;;;5070607;28;20188;-68
2021/12/07 00:56:24;;;;;;;8.67;2.80;;;26.30;99.90;;;;;;5070750;28;20175;-68
2021/12/07 00:58:54;;;;;;;5.93;2.30;;;26.50;99.90;;;;;;5070680;28;20217;-68
2021/12/07 01:01:22;;;;;;;6.20;2.13;;;27.20;99.90;;;;;;5070356;28;20279;-69
2021/12/07 01:03:51;;;;;;;7.43;2.20;;;26.80;99.90;;;;;;5070385;28;20267;-70
2021/12/07 01:25:07;;;;;;;5.67;1.90;;;27.80;99.90;;;;;;5070753;28;20206;-68
2021/12/07 01:27:36;;;;;;;5.67;1.80;;;28.20;99.90;;;;;;5069069;28;20670;-69
2021/12/07 01:30:22;;;;;;;3.70;1.73;;;28.10;99.90;;;;;;5070659;28;20187;-69
2021/12/07 01:38:32;;;;;;;3.70;1.83;;;28.70;99.90;;;;;;5072100;28;20175;-69
2021/12/07 01:41:11;;;;;;;3.63;2.30;;;28.70;99.90;;;;;;5074383;28;20184;-68
2021/12/07 01:50:12;;;;;;;4.73;1.63;;;29.10;99.90;;;;;;5074129;28;20227;-69
2021/12/07 01:59:55;;;;;;;7.63;3.10;;;29.10;99.90;;;;;;5073960;28;20180;-68
2021/12/07 02:02:26;;;;;;;6.23;3.30;;;29.40;99.90;;;;;;5073525;28;20176;-69
2021/12/07 02:04:55;;;;;;;4.37;1.97;;;29.40;99.90;;;;;;5073286;28;20220;-69
2021/12/07 02:07:23;;;;;;;4.47;2.00;;;29.80;99.90;;;;;;5073374;28;20207;-69
2021/12/07 02:09:56;;;;;;;6.97;2.30;;;29.70;99.90;;;;;;5073522;28;20567;-69
2021/12/07 02:12:24;;;;;;;7.90;2.43;;;30.10;99.90;;;;;;5072034;28;20184;-69
2021/12/07 02:14:52;;;;;;;4.37;1.60;;;30.40;99.90;;;;;;5072311;28;20188;-69
2021/12/07 02:17:23;;;;;;;4.87;2.10;;;30.60;99.90;;;;;;5073601;28;20176;-69
2021/12/07 02:19:51;;;;;;;4.57;2.20;;;30.30;99.90;;;;;;5073534;28;20207;-68
2021/12/07 02:22:18;;;;;;;3.17;1.90;;;30.50;99.90;;;;;;5073602;28;20188;-68
2021/12/07 02:24:46;;;;;;;4.87;1.70;;;30.80;99.90;;;;;;5073951;28;20351;-69
2021/12/07 02:27:13;;;;;;;3.77;1.43;;;31.10;99.90;;;;;;5073491;28;20179;-70
2021/12/07 02:29:41;;;;;;;3.17;1.93;;;31.10;99.90;;;;;;5072966;28;20229;-69
2021/12/07 02:32:09;;;;;;;2.90;1.77;;;30.60;99.90;;;;;;5073224;28;20180;-70
2021/12/07 02:34:42;;;;;;;8.17;1.90;;;30.90;99.90;;;;;;5073179;28;20191;-69
2021/12/07 02:37:10;;;;;;;5.93;1.73;;;31.50;99.90;;;;;;5073491;28;20580;-70
2021/12/07 02:39:44;;;;;;;4.17;1.63;;;31.10;99.90;;;;;;5073225;28;20198;-69
2021/12/07 02:42:11;;;;;;;4.10;2.00;;;31.00;99.90;;;;;;5073312;28;20229;-69
2021/12/07 02:44:39;;;;;;;3.00;1.73;;;31.50;99.90;;;;;;5071748;28;20188;-67
2021/12/07 02:47:06;;;;;;;6.13;1.97;;;31.50;99.90;;;;;;5073331;28;20263;-69
2021/12/07 02:49:34;;;;;;;5.00;1.77;;;31.20;99.90;;;;;;5072014;28;20747;-69
2021/12/07 02:52:03;;;;;;;2.67;1.90;;;31.20;99.90;;;;;;5073201;28;20187;-69
2021/12/07 02:54:32;;;;;;;3.60;1.23;;;31.40;99.90;;;;;;5072795;28;20183;-69
2021/12/07 02:57:01;;;;;;;5.37;1.97;;;31.20;99.90;;;;;;5060644;28;20192;-67
2021/12/07 02:59:29;;;;;;;3.10;1.55;;;31.80;99.90;;;;;;5064585;28;20183;-68
2021/12/07 03:02:06;;;;;;;2.22;1.42;;;31.60;99.90;;;;;;5057689;28;20192;-69
2021/12/07 03:04:38;;;;;;;3.72;1.55;;;31.30;99.90;;;;;;5072273;28;20183;-69
2021/12/07 03:28:28;;;;;;;3.20;1.60;;;32.40;99.90;;;;;;5072114;28;20264;-69
2021/12/07 03:30:56;;;;;;;2.00;1.30;;;32.10;99.90;;;;;;5072258;28;20180;-68
2021/12/07 03:33:23;;;;;;;3.10;1.70;;;32.40;99.90;;;;;;5059995;28;20187;-68
2021/12/07 03:35:50;;;;;;;2.92;1.52;;;33.00;99.90;;;;;;5065322;28;20180;-68
2021/12/07 03:38:18;;;;;;;2.30;1.45;;;33.40;99.90;;;;;;5052116;28;20182;-68
2021/12/07 03:40:46;;;;;;;4.38;1.65;;;33.30;99.90;;;;;;5056506;28;20241;-68
2021/12/07 03:43:15;;;;;;;3.40;1.52;;;32.70;99.90;;;;;;5066107;28;20225;-69
2021/12/07 03:45:42;;;;;;;6.45;1.77;;;31.20;99.90;;;;;;5070695;28;20175;-69
2021/12/07 03:48:11;;;;;;;1.87;1.27;;;30.60;99.90;;;;;;5071816;28;20219;-71
2021/12/07 03:50:39;;;;;;;3.63;1.98;;;30.50;99.90;;;;;;5072041;28;20179;-70
2021/12/07 03:53:07;;;;;;;3.90;1.53;;;30.00;99.90;;;;;;5071415;28;20215;-69
2021/12/07 03:55:35;;;;;;;6.83;2.00;;;29.70;99.90;;;;;;5070187;28;20241;-70
2021/12/07 03:58:06;;;;;;;4.70;1.80;;;29.70;99.90;;;;;;5071617;28;20195;-70
2021/12/07 04:00:37;;;;;;;4.83;1.47;;;29.40;99.90;;;;;;5071459;28;20176;-70
2021/12/07 04:03:09;;;;;;;5.87;1.70;;;29.20;99.90;;;;;;5071385;28;20322;-69
2021/12/07 04:05:47;;;;;;;6.27;2.07;;;28.90;99.90;;;;;;5071455;28;20238;-69
2021/12/07 04:08:17;;;;;;;5.10;2.03;;;28.60;99.90;;;;;;5071667;28;20300;-70
2021/12/07 04:10:45;;;;;;;4.07;1.50;;;28.30;99.90;;;;;;5071533;28;20172;-69
2021/12/07 04:13:13;;;;;;;3.43;1.70;;;28.00;99.90;;;;;;5071102;28;20191;-68
2021/12/07 04:15:40;;;;;;;5.87;1.90;;;27.90;99.90;;;;;;5071497;28;20208;-71
2021/12/07 04:18:08;;;;;;;6.97;2.07;;;27.60;99.90;;;;;;5071196;28;20207;-70
2021/12/07 04:20:36;;;;;;;3.87;2.20;;;27.20;99.90;;;;;;5071457;28;20655;-72
2021/12/07 04:23:04;;;;;;;7.27;2.40;;;27.00;99.90;;;;;;5082863;28;20212;-70
2021/12/07 04:25:32;;;;;;;6.63;2.40;;;26.70;99.90;;;;;;5081458;28;20182;-70
2021/12/07 04:28:01;;;;;;;11.00;2.53;;;26.50;99.90;;;;;;5073550;28;20678;-70
2021/12/07 04:30:31;;;;;;;6.53;2.40;;;26.10;99.90;;;;;;5071207;28;20186;-71
2021/12/07 04:33:00;;;;;;;5.83;2.20;;;24.90;99.90;;;;;;5070086;28;20609;-69
2021/12/07 04:35:28;;;;;;;4.67;2.17;;;23.90;99.90;;;;;;5070795;28;20191;-68
2021/12/07 04:37:57;;;;;;;8.17;2.30;;;23.40;99.90;;;;;;5071048;28;20190;-69
2021/12/07 04:40:27;;;;;;;5.63;2.37;;;23.10;99.90;;;;;;5071002;28;20183;-70
2021/12/07 04:42:56;;;;;;;16.63;11.27;;;23.00;99.90;;;;;;5070433;28;20266;-70
2021/12/07 04:45:34;;;;;;;6.37;2.27;;;23.00;99.90;;;;;;5070807;28;20206;-69
2021/12/07 04:48:28;;;;;;;4.50;1.97;;;22.70;99.90;;;;;;5070923;28;20214;-69
2021/12/07 04:59:05;;;;;;;5.77;2.50;;;22.90;99.90;;;;;;5050998;28;20696;-69
2021/12/07 05:01:33;;;;;;;6.03;2.63;;;23.20;99.90;;;;;;5051305;28;20700;-69
2021/12/07 05:04:08;;;;;;;10.27;3.43;;;23.60;99.90;;;;;;5069034;28;20254;-68
2021/12/07 05:06:41;;;;;;;9.03;2.67;;;23.90;99.90;;;;;;5060504;28;20287;-68
2021/12/07 05:10:10;;;;;;;5.33;1.67;;;24.40;99.90;;;;;;5070282;28;20225;-69
2021/12/07 05:14:33;;;;;;;5.17;2.10;;;26.00;99.90;;;;;;5073886;28;20207;-69
2021/12/07 05:38:52;;;;;;;4.37;2.00;;;26.70;99.90;;;;;;5074476;28;20251;-69
2021/12/07 05:41:19;;;;;;;6.50;4.30;;;26.40;99.90;;;;;;5074282;28;20217;-69
2021/12/07 05:43:47;;;;;;;2.70;1.90;;;26.40;99.90;;;;;;5074184;28;20180;-69
2021/12/07 05:46:15;;;;;;;4.07;2.20;;;26.00;99.90;;;;;;5074050;28;20172;-68
2021/12/07 05:48:42;;;;;;;7.40;2.20;;;25.70;99.90;;;;;;5073576;28;20226;-69
2021/12/07 05:51:09;;;;;;;1.93;1.63;;;25.60;99.90;;;;;;5073715;28;20184;-69
2021/12/07 05:53:37;;;;;;;4.07;1.87;;;25.60;99.90;;;;;;5073779;28;20767;-68
2021/12/07 05:56:05;;;;;;;4.27;2.00;;;25.70;99.90;;;;;;5073789;28;20172;-68
2021/12/07 05:58:32;;;;;;;5.97;2.23;;;25.40;99.90;;;;;;5072789;28;20191;-68
2021/12/07 06:01:00;;;;;;;6.13;2.43;;;25.50;99.90;;;;;;5073799;28;20233;-69
2021/12/07 06:03:28;;;;;;;7.80;2.30;;;25.60;99.90;;;;;;5073815;28;20200;-68
2021/12/07 06:05:56;;;;;;;6.93;2.03;;;25.40;99.90;;;;;;5073620;28;20587;-69
2021/12/07 06:08:23;;;;;;;8.37;2.17;;;25.10;99.90;;;;;;5072900;28;20294;-68
2021/12/07 06:10:51;;;;;;;4.47;1.97;;;24.70;99.90;;;;;;5073555;28;20180;-69
2021/12/07 06:13:18;;;;;;;4.30;2.10;;;24.20;99.90;;;;;;5073501;28;20270;-69
2021/12/07 06:15:46;;;;;;;5.00;2.50;;;23.90;99.90;;;;;;5072333;28;20185;-69
2021/12/07 06:18:13;;;;;;;5.17;2.27;;;23.70;99.90;;;;;;5073250;28;20180;-68
2021/12/07 06:20:41;;;;;;;13.23;2.60;;;23.50;99.90;;;;;;5073578;28;20270;-68
2021/12/07 06:23:11;;;;;;;8.93;2.43;;;23.60;99.90;;;;;;5073505;28;20684;-69
2021/12/07 06:25:39;;;;;;;10.50;2.43;;;23.60;99.90;;;;;;5072185;28;20538;-69
2021/12/07 06:28:06;;;;;;;6.97;2.93;;;23.60;99.90;;;;;;5073491;28;20227;-69
2021/12/07 06:30:33;;;;;;;5.00;2.17;;;23.40;99.90;;;;;;5073025;28;20196;-69
2021/12/07 06:33:01;;;;;;;13.27;2.90;;;23.40;99.90;;;;;;5073356;28;20558;-69
2021/12/07 06:35:28;;;;;;;9.13;3.10;;;23.30;99.90;;;;;;5090768;28;20243;-69
2021/12/07 06:37:56;;;;;;;10.40;3.07;;;23.20;99.90;;;;;;5093447;28;20179;-69
2021/12/07 06:40:23;;;;;;;4.93;3.10;;;23.20;99.90;;;;;;5093404;28;20198;-69
2021/12/07 06:42:50;;;;;;;6.27;3.27;;;23.10;99.90;;;;;;5093542;28;20197;-69
2021/12/07 06:45:18;;;;;;;10.77;4.30;;;23.10;99.90;;;;;;5073983;28;20207;-69
2021/12/07 06:47:46;;;;;;;10.33;3.80;;;23.10;99.90;;;;;;5073305;28;20222;-69
2021/12/07 06:50:13;;;;;;;12.73;7.13;;;23.20;99.90;;;;;;5072612;28;20183;-69
2021/12/07 06:52:40;;;;;;;9.80;5.27;;;23.40;99.90;;;;;;5073044;28;20233;-69
2021/12/07 06:55:09;;;;;;;6.47;2.77;;;23.50;99.90;;;;;;5071333;28;20666;-69
2021/12/07 06:57:36;;;;;;;5.23;2.70;;;23.50;99.90;;;;;;5072790;28;20176;-69
2021/12/07 07:00:08;;;;;;;8.70;2.83;;;23.70;99.90;;;;;;5072173;28;20210;-70
2021/12/07 07:02:35;;;;;;;7.43;2.50;;;23.70;99.90;;;;;;5072626;28;20587;-70
2021/12/07 07:05:03;;;;;;;3.97;2.10;;;23.60;99.90;;;;;;5072225;28;20235;-68
2021/12/07 07:07:33;;;;;;;8.67;2.67;;;23.60;99.90;;;;;;5072688;28;20179;-69
2021/12/07 07:10:03;;;;;;;4.43;2.47;;;23.60;99.90;;;;;;5072680;28;20744;-69
2021/12/07 07:12:30;;;;;;;6.63;3.10;;;23.60;99.90;;;;;;5072520;28;20178;-69
2021/12/07 07:14:57;;;;;;;5.47;3.13;;;23.40;99.90;;;;;;5072069;28;20291;-69
2021/12/07 07:17:26;;;;;;;4.23;2.80;;;23.30;99.90;;;;;;5072166;28;20262;-68
2021/12/07 07:19:53;;;;;;;4.57;2.43;;;23.30;99.90;;;;;;5072343;28;20167;-69
2021/12/07 07:22:20;;;;;;;5.37;2.30;;;23.40;99.90;;;;;;5072253;28;20199;-67
2021/12/07 07:24:48;;;;;;;8.43;3.00;;;23.30;99.90;;;;;;5060981;28;20191;-68
2021/12/07 07:27:16;;;;;;;5.83;2.90;;;23.30;99.90;;;;;;5058357;28;20176;-68
2021/12/07 07:29:43;;;;;;;5.30;3.10;;;23.30;99.90;;;;;;5072057;28;20261;-68
2021/12/07 07:32:10;;;;;;;4.40;2.67;;;23.10;99.90;;;;;;5071664;28;20206;-68
2021/12/07 07:34:38;;;;;;;5.93;2.67;;;23.10;99.90;;;;;;5071739;28;20581;-69
2021/12/07 07:37:06;;;;;;;6.07;2.80;;;23.00;99.90;;;;;;5071591;28;20187;-68
2021/12/07 07:39:34;;;;;;;9.07;3.77;;;23.00;99.90;;;;;;5071623;28;20195;-68
2021/12/07 07:42:01;;;;;;;5.97;3.00;;;23.10;99.90;;;;;;5071817;28;20546;-69
2021/12/07 07:44:29;;;;;;;4.73;2.80;;;23.00;99.90;;;;;;5071769;28;20185;-69
2021/12/07 07:46:57;;;;;;;3.37;2.60;;;23.00;99.90;;;;;;5071776;28;20679;-69
2021/12/07 07:49:25;;;;;;;5.70;2.63;;;23.00;99.90;;;;;;5071487;28;20222;-68
2021/12/07 07:51:52;;;;;;;5.13;2.53;;;23.00;99.90;;;;;;5072924;28;20180;-68
2021/12/07 07:54:20;;;;;;;4.30;2.63;;;23.20;99.90;;;;;;5073335;28;20179;-67
2021/12/07 07:56:48;;;;;;;3.83;2.47;;;23.20;99.90;;;;;;5053232;28;20640;-68
2021/12/07 07:59:15;;;;;;;5.10;2.80;;;23.10;99.90;;;;;;5059219;28;20245;-68
2021/12/07 08:01:43;;;;;;;4.07;2.73;;;23.00;99.90;;;;;;5072009;28;20190;-68
2021/12/07 08:04:11;;;;;;;6.27;3.00;;;22.80;99.90;;;;;;5073400;28;20186;-69
2021/12/07 08:06:39;;;;;;;7.83;2.70;;;22.80;99.90;;;;;;5071801;28;20233;-68
2021/12/07 08:09:08;;;;;;;5.37;2.30;;;22.70;99.90;;;;;;5073517;28;20240;-69
2021/12/07 08:11:36;;;;;;;3.57;2.20;;;22.80;99.90;;;;;;5072005;28;20232;-68
2021/12/07 08:14:04;;;;;;;3.67;2.50;;;22.80;99.90;;;;;;5073182;28;20202;-69
2021/12/07 08:16:32;;;;;;;4.30;2.40;;;22.80;99.90;;;;;;5073236;28;20203;-67
2021/12/07 08:19:01;;;;;;;5.90;3.07;;;22.80;99.90;;;;;;5073293;28;20593;-68
2021/12/07 08:21:29;;;;;;;3.83;2.40;;;22.80;99.90;;;;;;5071413;28;20186;-69
2021/12/07 08:23:57;;;;;;;8.20;4.40;;;22.70;99.90;;;;;;5073005;28;20192;-69
2021/12/07 08:26:25;;;;;;;9.60;6.37;;;22.70;99.90;;;;;;5071460;28;20178;-70
2021/12/07 08:28:56;;;;;;;7.07;2.83;;;22.60;99.90;;;;;;5053203;28;20686;-69
2021/12/07 08:31:26;;;;;;;6.83;3.77;;;22.50;99.90;;;;;;5053273;28;20190;-70
2021/12/07 08:33:53;;;;;;;4.97;2.80;;;22.50;99.90;;;;;;5053188;28;20173;-69
2021/12/07 08:36:21;;;;;;;3.50;2.53;;;22.40;99.90;;;;;;5052896;28;20207;-69
2021/12/07 08:38:50;;;;;;;5.97;2.97;;;22.40;99.90;;;;;;5069756;28;20183;-70
2021/12/07 08:41:18;;;;;;;3.73;2.40;;;22.40;99.90;;;;;;5072484;28;20183;-69
2021/12/07 08:43:46;;;;;;;4.20;2.60;;;22.30;99.90;;;;;;5072739;28;20653;-69
2021/12/07 08:46:15;;;;;;;3.87;2.50;;;22.30;99.90;;;;;;5072852;28;20263;-69
2021/12/07 08:48:44;;;;;;;4.50;2.30;;;22.30;99.90;;;;;;5075029;28;20353;-69
2021/12/07 08:51:13;;;;;;;4.90;2.33;;;22.20;99.90;;;;;;5076993;28;20195;-69
2021/12/07 08:54:04;;;;;;;3.27;2.13;;;22.20;99.90;;;;;;5076791;28;20184;-69
2021/12/07 09:02:04;;;;;;;25.40;3.57;;;22.20;99.90;;;;;;5076680;28;20209;-69
2021/12/07 09:04:31;;;;;;;14.73;3.43;;;22.10;99.90;;;;;;5074687;28;20206;-69
2021/12/07 09:07:00;;;;;;;12.97;3.87;;;22.10;99.90;;;;;;5076471;28;20180;-69
2021/12/07 09:09:28;;;;;;;6.60;3.13;;;22.00;99.90;;;;;;5076547;28;20216;-69
2021/12/07 09:11:56;;;;;;;8.80;3.77;;;22.00;99.90;;;;;;5076766;28;20179;-69
2021/12/07 09:14:24;;;;;;;12.40;3.50;;;22.00;99.90;;;;;;5075820;28;20206;-69
2021/12/07 09:16:52;;;;;;;2.70;2.10;;;21.90;99.90;;;;;;5075832;28;20263;-68
2021/12/07 09:19:20;;;;;;;6.13;2.80;;;21.90;99.90;;;;;;5076483;28;20634;-69
2021/12/07 09:21:47;;;;;;;3.77;2.27;;;21.80;99.90;;;;;;5076056;28;20575;-68
2021/12/07 09:24:15;;;;;;;2.37;1.87;;;21.80;99.90;;;;;;5075864;28;20253;-69
2021/12/07 09:26:43;;;;;;;4.30;2.20;;;21.70;99.90;;;;;;5076664;28;20175;-69
2021/12/07 09:29:11;;;;;;;2.87;2.07;;;21.70;99.90;;;;;;5076160;28;20223;-68
2021/12/07 09:31:39;;;;;;;3.60;1.83;;;21.60;99.90;;;;;;5076422;28;20545;-68
2021/12/07 09:34:07;;;;;;;3.83;2.17;;;21.60;99.90;;;;;;5076356;28;20207;-69
2021/12/07 09:36:36;;;;;;;3.73;2.07;;;21.50;99.90;;;;;;5076039;28;20176;-69
2021/12/07 09:39:07;;;;;;;6.07;2.63;;;21.50;99.90;;;;;;5075892;28;20179;-68
2021/12/07 09:41:35;;;;;;;13.57;7.57;;;21.50;99.90;;;;;;5076011;28;20211;-69
2021/12/07 09:44:07;;;;;;;9.00;4.63;;;21.40;99.90;;;;;;5076146;28;20172;-69
2021/12/07 09:46:36;;;;;;;3.87;3.03;;;21.30;99.90;;;;;;5075987;28;20652;-69
2021/12/07 09:49:05;;;;;;;22.33;11.47;;;21.30;99.90;;;;;;5056286;28;20233;-69
2021/12/07 09:51:33;;;;;;;12.27;2.70;;;21.20;99.90;;;;;;5056192;28;20686;-70
2021/12/07 09:54:02;;;;;;;4.47;2.10;;;21.10;99.90;;;;;;5056257;28;20672;-69
2021/12/07 09:56:30;;;;;;;4.20;1.90;;;21.00;99.90;;;;;;5056272;28;20659;-70
2021/12/07 09:59:00;;;;;;;3.03;1.93;;;21.00;99.90;;;;;;5073829;28;20179;-69
2021/12/07 10:01:30;;;;;;;3.50;1.87;;;21.00;99.90;;;;;;5075834;28;20647;-69
2021/12/07 10:03:58;;;;;;;4.10;2.57;;;21.00;99.90;;;;;;5074356;28;20189;-69
2021/12/07 10:06:26;;;;;;;4.37;2.20;;;20.90;99.90;;;;;;5075396;28;20589;-69
2021/12/07 10:08:54;;;;;;;4.17;2.37;;;20.90;99.90;;;;;;5073830;28;20258;-70
2021/12/07 10:11:23;;;;;;;4.30;2.63;;;20.90;99.90;;;;;;5075396;28;20259;-70
2021/12/07 10:13:54;;;;;;;3.57;2.33;;;20.90;99.90;;;;;;5074668;28;20180;-69
2021/12/07 10:16:23;;;;;;;6.70;2.60;;;20.80;99.90;;;;;;5072356;28;20633;-68
2021/12/07 10:18:51;;;;;;;3.30;2.40;;;20.80;99.90;;;;;;5074232;28;20183;-69
2021/12/07 10:21:25;;;;;;;3.57;1.83;;;20.70;99.90;;;;;;5074999;28;20313;-67
2021/12/07 10:23:58;;;;;;;6.17;2.00;;;20.70;99.90;;;;;;5072290;28;20183;-68
2021/12/07 10:26:31;;;;;;;4.70;2.23;;;20.70;99.90;;;;;;5073794;28;20187;-69
2021/12/07 10:29:01;;;;;;;4.57;2.30;;;20.70;99.90;;;;;;5074482;28;20235;-69
2021/12/07 10:31:28;;;;;;;4.97;2.57;;;20.60;99.90;;;;;;5074610;28;20249;-69
2021/12/07 10:34:00;;;;;;;3.17;2.10;;;20.50;99.90;;;;;;5073501;28;20633;-69
2021/12/07 10:36:49;;;;;;;6.37;1.90;;;20.40;99.90;;;;;;5072120;28;20176;-68
2021/12/07 10:39:26;;;;;;;5.50;2.00;;;20.40;99.90;;;;;;5073563;28;20265;-68
2021/12/07 10:41:57;;;;;;;4.23;1.80;;;20.40;99.90;;;;;;5073627;28;20230;-68
2021/12/07 10:44:32;;;;;;;6.13;2.50;;;20.40;99.90;;;;;;5072373;28;20193;-68
2021/12/07 10:47:03;;;;;;;3.40;1.83;;;20.40;99.90;;;;;;5074201;28;20171;-69
2021/12/07 10:49:43;;;;;;;4.27;2.40;;;20.40;99.90;;;;;;5074888;28;20267;-68
2021/12/07 10:52:24;;;;;;;6.13;2.40;;;20.30;99.90;;;;;;5074517;28;20181;-69
2021/12/07 10:55:13;;;;;;;6.80;2.20;;;20.30;99.90;;;;;;5072925;28;20672;-69
2021/12/07 10:57:52;;;;;;;6.23;2.47;;;20.30;99.90;;;;;;5068424;28;20185;-68
2021/12/07 11:00:26;;;;;;;5.80;1.97;;;20.40;99.90;;;;;;5074763;28;20191;-69
2021/12/07 11:03:08;;;;;;;7.03;2.70;;;20.40;99.90;;;;;;5074543;28;20633;-67
2021/12/07 11:05:50;;;;;;;7.50;2.20;;;20.40;99.90;;;;;;5073767;28;20221;-68
2021/12/07 11:08:20;;;;;;;4.53;2.03;;;20.30;99.90;;;;;;5072420;28;20664;-69
2021/12/07 11:10:50;;;;;;;5.23;2.47;;;20.20;99.90;;;;;;5073583;28;20642;-68
2021/12/07 11:13:22;;;;;;;4.07;1.97;;;20.20;99.90;;;;;;5073896;28;20182;-69
2021/12/07 11:16:00;;;;;;;6.30;2.50;;;20.20;99.90;;;;;;5074276;28;20180;-69
2021/12/07 11:18:31;;;;;;;3.73;2.30;;;20.20;99.90;;;;;;5074138;28;20196;-69
2021/12/07 11:21:04;;;;;;;4.47;2.67;;;20.20;99.90;;;;;;5074267;28;20209;-69
2021/12/07 11:23:35;;;;;;;2.77;2.23;;;20.20;99.90;;;;;;5074215;28;20180;-68
2021/12/07 11:32:00;;;;;;;6.23;2.57;;;20.30;99.90;;;;;;5074610;28;20233;-69
2021/12/07 11:34:31;;;;;;;7.77;2.50;;;20.30;99.90;;;;;;5074230;28;20198;-68
2021/12/07 11:37:05;;;;;;;4.30;2.50;;;20.40;99.90;;;;;;5073458;28;20174;-69
2021/12/07 11:39:52;;;;;;;5.27;2.37;;;20.40;99.90;;;;;;5054049;28;20209;-69
2021/12/07 11:42:23;;;;;;;3.53;1.87;;;20.40;99.90;;;;;;5053994;28;20267;-69
2021/12/07 11:44:51;;;;;;;5.03;2.03;;;20.40;99.90;;;;;;5072086;28;20238;-69
2021/12/07 11:47:41;;;;;;;8.13;2.40;;;20.50;99.90;;;;;;5073711;28;20176;-68
2021/12/07 11:50:35;;;;;;;4.27;2.07;;;20.50;99.90;;;;;;5073789;28;20191;-68
2021/12/07 11:53:06;;;;;;;3.47;2.33;;;20.50;99.90;;;;;;5073974;28;20179;-69
2021/12/07 11:55:36;;;;;;;2.47;1.77;;;20.40;99.90;;;;;;5074350;28;20206;-68
2021/12/07 11:58:06;;;;;;;4.67;2.40;;;20.40;99.90;;;;;;5073411;28;20185;-68
2021/12/07 12:00:38;;;;;;;5.83;1.93;;;20.30;99.90;;;;;;5073553;28;20225;-69
2021/12/07 12:03:09;;;;;;;4.20;2.17;;;20.30;99.90;;;;;;5072327;28;20185;-69
2021/12/07 12:05:39;;;;;;;7.17;2.30;;;20.30;99.90;;;;;;5073459;28;20692;-66
2021/12/07 12:08:09;;;;;;;5.60;1.80;;;20.30;99.90;;;;;;5073215;28;20261;-69
2021/12/07 12:10:41;;;;;;;3.37;2.10;;;20.20;99.90;;;;;;5073344;28;20273;-69
2021/12/07 12:13:22;;;;;;;5.77;2.03;;;20.20;99.90;;;;;;5073380;28;20262;-69
2021/12/07 12:16:15;;;;;;;4.10;2.20;;;20.10;99.90;;;;;;5073079;28;20673;-68
2021/12/07 12:19:18;;;;;;;5.50;2.50;;;20.10;99.90;;;;;;5073082;28;20199;-69
2021/12/07 12:22:00;;;;;;;11.57;2.27;;;20.10;99.90;;;;;;5033658;28;20280;-68
2021/12/07 12:24:49;;;;;;;4.33;1.80;;;20.20;99.90;;;;;;5051852;28;20189;-69
2021/12/07 12:27:25;;;;;;;5.83;2.30;;;20.20;99.90;;;;;;5072458;28;20204;-68
2021/12/07 12:29:56;;;;;;;4.13;1.90;;;20.20;99.90;;;;;;5073164;28;20306;-68
2021/12/07 12:32:33;;;;;;;5.40;2.33;;;20.20;99.90;;;;;;5073125;28;20287;-69
2021/12/07 12:35:01;;;;;;;2.30;1.97;;;20.20;99.90;;;;;;5072837;28;20222;-68
2021/12/07 12:37:32;;;;;;;5.93;2.47;;;20.20;99.90;;;;;;5073057;28;20649;-68
2021/12/07 12:40:07;;;;;;;4.10;2.17;;;20.10;99.90;;;;;;5072927;28;20517;-69
2021/12/07 12:42:45;;;;;;;5.47;1.70;;;20.10;99.90;;;;;;5073242;28;20181;-68
2021/12/07 12:45:25;;;;;;;3.77;1.90;;;20.20;99.90;;;;;;5072878;28;20234;-69
2021/12/07 12:48:08;;;;;;;3.77;2.00;;;20.20;99.90;;;;;;5072805;28;20184;-68
2021/12/07 12:50:39;;;;;;;4.60;1.80;;;20.20;99.90;;;;;;5073055;28;20231;-69
2021/12/07 12:53:14;;;;;;;4.10;1.60;;;20.20;99.90;;;;;;5073168;28;20638;-68
2021/12/07 12:55:48;;;;;;;4.10;1.70;;;20.20;99.90;;;;;;5073108;28;20176;-68
2021/12/07 12:58:18;;;;;;;2.90;1.80;;;20.10;99.90;;;;;;5072845;28;20185;-68
2021/12/07 13:01:10;;;;;;;2.77;1.73;;;20.10;99.90;;;;;;5072975;28;20172;-68
2021/12/07 13:04:07;;;;;;;3.60;1.60;;;20.10;99.90;;;;;;5073107;28;20266;-69
2021/12/07 13:06:39;;;;;;;3.10;1.80;;;20.10;99.90;;;;;;5071644;28;20238;-69
2021/12/07 13:09:11;;;;;;;2.63;1.50;;;20.20;99.90;;;;;;5072141;28;20222;-68
2021/12/07 13:11:52;;;;;;;2.50;1.50;;;20.00;99.90;;;;;;5071579;28;20183;-69
2021/12/07 13:14:33;;;;;;;2.20;1.90;;;20.00;99.90;;;;;;5073007;28;20180;-68
2021/12/07 13:17:06;;;;;;;5.83;1.70;;;20.00;99.90;;;;;;5072937;28;20225;-68
2021/12/07 13:19:52;;;;;;;3.50;1.70;;;19.90;99.90;;;;;;5072820;28;20180;-68
2021/12/07 13:22:20;;;;;;;6.13;1.70;;;19.90;99.90;;;;;;5072726;28;20185;-69
2021/12/07 13:24:51;;;;;;;6.20;2.00;;;19.90;99.90;;;;;;5072829;28;20164;-68
2021/12/07 13:27:19;;;;;;;2.63;1.70;;;19.90;99.90;;;;;;5072430;28;20176;-68
2021/12/07 13:29:52;;;;;;;4.33;1.70;;;19.90;99.90;;;;;;5072808;28;20223;-68
2021/12/07 13:32:20;;;;;;;5.00;1.80;;;19.90;99.90;;;;;;5072580;28;20164;-68
2021/12/07 13:35:05;;;;;;;2.87;1.70;;;19.90;99.90;;;;;;5074580;28;20189;-68
2021/12/07 13:37:47;;;;;;;7.07;1.77;;;19.90;99.90;;;;;;5076078;28;20610;-68
2021/12/07 13:40:21;;;;;;;2.60;2.00;;;19.90;99.90;;;;;;5056381;28;20272;-68
2021/12/07 13:42:52;;;;;;;4.03;2.00;;;19.90;99.90;;;;;;5056078;28;20553;-68
2021/12/07 13:45:22;;;;;;;3.33;2.20;;;19.80;99.90;;;;;;5067184;28;20193;-68
2021/12/07 13:47:53;;;;;;;4.80;3.03;;;19.80;99.90;;;;;;5075627;28;20233;-68
2021/12/07 13:50:29;;;;;;;7.07;4.80;;;19.70;99.90;;;;;;5076347;28;20320;-68
2021/12/07 13:52:58;;;;;;;10.97;3.70;;;19.70;99.90;;;;;;5076190;28;20684;-68
2021/12/07 13:55:33;;;;;;;4.33;2.77;;;19.70;99.90;;;;;;5075736;28;20175;-67
2021/12/07 13:58:04;;;;;;;6.23;2.77;;;19.70;99.90;;;;;;5075820;28;20168;-69
2021/12/07 14:00:36;;;;;;;4.40;2.00;;;19.70;99.90;;;;;;5075508;28;20214;-69
2021/12/07 14:03:07;;;;;;;3.03;2.23;;;19.70;99.90;;;;;;5075952;28;20268;-68
2021/12/07 14:05:38;;;;;;;4.10;2.60;;;19.60;99.90;;;;;;5075611;28;20228;-68
2021/12/07 14:08:09;;;;;;;6.27;2.20;;;19.60;99.90;;;;;;5075597;28;20539;-68
2021/12/07 14:10:44;;;;;;;10.17;2.70;;;19.60;99.90;;;;;;5076017;28;20264;-68
2021/12/07 14:13:14;;;;;;;6.27;2.60;;;19.60;99.90;;;;;;5074209;28;20640;-67
2021/12/07 14:15:45;;;;;;;8.47;2.90;;;19.60;99.90;;;;;;5074539;28;20298;-68
2021/12/07 14:18:19;;;;;;;5.63;2.50;;;19.60;99.90;;;;;;5075502;28;20185;-68
2021/12/07 14:20:55;;;;;;;7.83;2.50;;;19.50;99.90;;;;;;5075551;28;20207;-68
2021/12/07 14:23:31;;;;;;;4.27;2.53;;;19.50;99.90;;;;;;5075442;28;20179;-68
2021/12/07 14:26:05;;;;;;;5.40;3.03;;;19.40;99.90;;;;;;5075451;28;20179;-68
2021/12/07 14:28:44;;;;;;;4.37;2.37;;;19.40;99.90;;;;;;5075148;28;20697;-68
2021/12/07 14:31:13;;;;;;;4.53;2.63;;;19.40;99.90;;;;;;5075417;28;20178;-69
2021/12/07 14:33:46;;;;;;;10.40;2.83;;;19.40;99.90;;;;;;5075227;28;20176;-68
2021/12/07 14:36:17;;;;;;;3.20;2.70;;;19.40;99.90;;;;;;5073822;28;20181;-68
2021/12/07 14:38:48;;;;;;;4.20;2.67;;;19.50;99.90;;;;;;5074997;28;20204;-68
2021/12/07 14:41:18;;;;;;;5.80;2.80;;;19.50;99.90;;;;;;5075226;28;20176;-68
2021/12/07 14:43:46;;;;;;;5.77;2.80;;;19.50;99.90;;;;;;5074443;28;20183;-68
2021/12/07 14:46:18;;;;;;;3.93;3.07;;;19.40;99.90;;;;;;5056324;28;20187;-67
2021/12/07 14:48:47;;;;;;;4.03;2.70;;;19.30;99.90;;;;;;5074832;28;20199;-68